Time;durP1;ratioP1;P1;durP2;ratioP2;P2;SDS_P1;SDS_P2;PMS_P1;PMS_P2;Temp;Humidity;BMP_temperature;BMP_pressure;BME280_temperature;BME280_humidity;BME280_pressure;Samples;Min_cycle;Max_cycle;Signal;HPM_P1;HPM_P2
2022/07/09 00:01:48;;;;;;;1010.10;928.13;;;14.00;15.70;;;;;;5072409;28;20202;-70
2022/07/09 00:04:14;;;;;;;630.57;586.90;;;14.00;15.60;;;;;;5072784;28;20178;-69
2022/07/09 00:06:39;;;;;;;801.60;746.13;;;14.10;15.50;;;;;;5072381;28;20173;-69
2022/07/09 00:09:05;;;;;;;295.60;280.90;;;14.00;15.60;;;;;;5072347;28;20576;-69
2022/07/09 00:11:31;;;;;;;361.10;343.57;;;13.70;16.60;;;;;;5072271;28;20608;-69
2022/07/09 00:13:56;;;;;;;1036.90;962.53;;;13.20;17.80;;;;;;5072111;28;20233;-69
2022/07/09 00:16:22;;;;;;;407.77;382.30;;;13.30;18.00;;;;;;5072268;28;20565;-68
2022/07/09 00:18:47;;;;;;;189.33;180.80;;;13.40;17.20;;;;;;5074349;28;20190;-69
2022/07/09 00:21:13;;;;;;;323.40;303.53;;;13.40;17.00;;;;;;5072023;28;20284;-69
2022/07/09 00:23:39;;;;;;;909.03;845.07;;;13.40;17.50;;;;;;5071857;28;20203;-69
2022/07/09 00:26:04;;;;;;;860.30;799.67;;;13.40;17.60;;;;;;5071843;28;20170;-69
2022/07/09 00:28:30;;;;;;;396.90;372.13;;;13.50;17.70;;;;;;5072862;28;20276;-69
2022/07/09 00:30:55;;;;;;;565.83;527.67;;;13.50;17.50;;;;;;5075066;28;20205;-69
2022/07/09 00:33:21;;;;;;;382.83;357.97;;;13.40;17.70;;;;;;5075902;28;20189;-69
2022/07/09 00:35:46;;;;;;;957.07;891.10;;;13.40;17.90;;;;;;5076078;28;20648;-70
2022/07/09 00:38:12;;;;;;;659.07;615.00;;;13.40;17.90;;;;;;5075490;28;20205;-68
2022/07/09 00:40:38;;;;;;;836.47;775.47;;;13.40;17.80;;;;;;5076106;28;20180;-69
2022/07/09 00:43:03;;;;;;;269.23;254.27;;;13.40;18.20;;;;;;5076075;28;20651;-68
2022/07/09 00:45:29;;;;;;;732.07;679.13;;;13.40;18.00;;;;;;5076973;28;20403;-68
2022/07/09 00:47:54;;;;;;;644.53;596.17;;;13.30;18.40;;;;;;5077051;28;20172;-69
2022/07/09 00:50:20;;;;;;;414.40;385.30;;;13.30;18.30;;;;;;5075350;28;20227;-69
2022/07/09 00:52:47;;;;;;;770.43;716.37;;;13.40;18.20;;;;;;5075468;28;20260;-69
2022/07/09 00:55:13;;;;;;;738.50;685.67;;;13.30;18.50;;;;;;5075962;28;20170;-69
2022/07/09 00:57:40;;;;;;;440.67;411.13;;;13.40;18.60;;;;;;5075313;28;20457;-69
2022/07/09 01:00:06;;;;;;;456.70;425.10;;;13.40;18.20;;;;;;5075595;28;20439;-69
2022/07/09 01:02:32;;;;;;;709.83;655.50;;;13.40;18.30;;;;;;5075117;28;20466;-69
2022/07/09 01:04:57;;;;;;;538.17;501.20;;;13.20;18.40;;;;;;5075813;28;20408;-70
2022/07/09 01:07:23;;;;;;;482.67;450.37;;;13.20;18.70;;;;;;5076497;28;20406;-69
2022/07/09 01:09:49;;;;;;;416.87;389.83;;;13.10;18.40;;;;;;5073771;28;20293;-68
2022/07/09 01:12:14;;;;;;;547.00;512.03;;;13.10;18.70;;;;;;5075206;28;20641;-69
2022/07/09 01:14:40;;;;;;;774.83;720.30;;;13.00;19.20;;;;;;5075027;28;20174;-69
2022/07/09 01:17:06;;;;;;;738.93;685.37;;;13.00;19.30;;;;;;5075080;28;20248;-69
2022/07/09 01:19:33;;;;;;;585.10;544.63;;;13.00;19.10;;;;;;5074516;28;20545;-69
2022/07/09 01:21:59;;;;;;;863.40;794.13;;;13.00;19.10;;;;;;5075529;28;20509;-69
2022/07/09 01:24:25;;;;;;;1014.30;937.97;;;12.90;19.40;;;;;;5074698;28;20411;-68
2022/07/09 01:26:53;;;;;;;1142.87;999.90;;;12.90;19.70;;;;;;5073706;28;20430;-69
2022/07/09 01:29:19;;;;;;;885.87;815.73;;;12.90;20.10;;;;;;5074001;28;20467;-68
2022/07/09 01:31:45;;;;;;;1121.47;999.90;;;12.80;20.30;;;;;;5076441;28;20451;-69
2022/07/09 01:34:11;;;;;;;808.40;748.07;;;12.80;20.30;;;;;;5074506;28;20451;-69
2022/07/09 01:36:36;;;;;;;185.47;177.07;;;12.70;20.20;;;;;;5074641;28;20188;-69
2022/07/09 01:39:02;;;;;;;1031.77;948.03;;;12.70;20.00;;;;;;5073641;28;20203;-69
2022/07/09 01:41:28;;;;;;;261.57;247.70;;;12.70;20.20;;;;;;5074150;28;20299;-69
2022/07/09 01:43:53;;;;;;;223.67;211.83;;;12.70;20.20;;;;;;5074362;28;20495;-69
2022/07/09 01:46:19;;;;;;;562.73;519.17;;;12.60;20.10;;;;;;5074361;28;20178;-69
2022/07/09 01:48:45;;;;;;;911.87;835.63;;;12.60;20.20;;;;;;5073972;28;20277;-68
2022/07/09 01:51:13;;;;;;;995.03;916.33;;;12.60;20.60;;;;;;5074197;28;20181;-70
2022/07/09 01:53:39;;;;;;;470.90;438.00;;;12.60;20.10;;;;;;5074144;28;20185;-69
2022/07/09 01:56:07;;;;;;;835.80;770.73;;;12.60;20.10;;;;;;5074572;28;20422;-68
2022/07/09 01:58:33;;;;;;;606.53;564.23;;;12.50;20.80;;;;;;5073686;28;20445;-69
2022/07/09 02:00:58;;;;;;;834.20;765.53;;;12.50;20.80;;;;;;5074011;28;20466;-68
2022/07/09 02:03:24;;;;;;;698.83;646.70;;;12.50;20.90;;;;;;5075291;28;20528;-68
2022/07/09 02:05:49;;;;;;;1095.13;999.90;;;12.50;21.00;;;;;;5075275;28;20186;-69
2022/07/09 02:08:15;;;;;;;255.23;243.00;;;12.60;20.80;;;;;;5074921;28;20212;-68
2022/07/09 02:10:41;;;;;;;1129.67;999.90;;;12.40;20.50;;;;;;5074849;28;20174;-68
2022/07/09 02:13:06;;;;;;;548.37;505.47;;;12.40;21.40;;;;;;5074796;28;20670;-69
2022/07/09 02:15:32;;;;;;;368.30;345.20;;;12.30;21.30;;;;;;5075036;28;20224;-69
2022/07/09 02:17:58;;;;;;;597.20;552.47;;;12.30;21.70;;;;;;5073633;28;20419;-69
2022/07/09 02:20:24;;;;;;;644.93;600.23;;;12.30;21.80;;;;;;5073827;28;20178;-68
2022/07/09 02:22:50;;;;;;;564.77;523.83;;;12.30;21.80;;;;;;5073666;28;20536;-68
2022/07/09 02:25:16;;;;;;;333.87;313.37;;;12.20;21.90;;;;;;5073771;28;20413;-69
2022/07/09 02:27:41;;;;;;;713.60;659.50;;;12.20;21.90;;;;;;5073509;28;20176;-70
2022/07/09 02:30:07;;;;;;;848.53;783.53;;;12.20;21.90;;;;;;5071897;28;20203;-69
2022/07/09 02:32:33;;;;;;;485.97;452.70;;;12.20;21.80;;;;;;5073522;28;20656;-69
2022/07/09 02:34:58;;;;;;;332.63;313.27;;;12.20;21.90;;;;;;5071790;28;20424;-69
2022/07/09 02:37:24;;;;;;;807.20;745.50;;;12.10;21.90;;;;;;5073478;28;20184;-69
2022/07/09 02:39:50;;;;;;;583.80;542.23;;;12.10;22.30;;;;;;5072835;28;20621;-69
2022/07/09 02:42:15;;;;;;;475.07;445.20;;;12.10;22.00;;;;;;5073669;28;20232;-69
2022/07/09 02:44:43;;;;;;;565.27;521.20;;;12.20;22.00;;;;;;5074905;28;20706;-69
2022/07/09 02:47:09;;;;;;;650.43;602.37;;;12.20;21.90;;;;;;5073377;28;20176;-69
2022/07/09 02:49:34;;;;;;;753.83;695.47;;;12.10;21.70;;;;;;5072510;28;20946;-69
2022/07/09 02:52:01;;;;;;;546.10;509.13;;;12.10;22.00;;;;;;5073412;28;20406;-69
2022/07/09 02:54:27;;;;;;;765.90;705.90;;;12.10;22.10;;;;;;5073543;28;20585;-69
2022/07/09 02:56:53;;;;;;;569.80;528.10;;;12.10;22.10;;;;;;5073142;28;20414;-69
2022/07/09 02:59:18;;;;;;;417.17;389.57;;;12.10;22.20;;;;;;5072483;28;20959;-69
2022/07/09 03:01:44;;;;;;;554.47;516.03;;;12.10;21.70;;;;;;5073853;28;20199;-69
2022/07/09 03:04:10;;;;;;;942.87;866.43;;;12.00;21.90;;;;;;5073396;28;20706;-69
2022/07/09 03:06:36;;;;;;;994.83;918.43;;;12.00;22.00;;;;;;5075138;28;20561;-68
2022/07/09 03:09:02;;;;;;;966.20;888.03;;;12.00;21.90;;;;;;5071044;28;20225;-69
2022/07/09 03:11:28;;;;;;;387.07;362.60;;;12.00;22.00;;;;;;5072957;28;20232;-68
2022/07/09 03:13:54;;;;;;;983.13;906.27;;;12.00;22.00;;;;;;5072819;28;20923;-69
2022/07/09 03:16:19;;;;;;;939.00;862.63;;;12.00;22.00;;;;;;5073083;28;20208;-69
2022/07/09 03:18:45;;;;;;;902.33;829.70;;;11.90;22.20;;;;;;5072457;28;20442;-69
2022/07/09 03:21:11;;;;;;;617.90;572.73;;;11.90;22.40;;;;;;5075215;28;20208;-69
2022/07/09 03:23:37;;;;;;;1061.10;977.70;;;11.90;22.30;;;;;;5073044;28;20172;-69
2022/07/09 03:26:04;;;;;;;462.03;429.77;;;11.90;22.50;;;;;;5072423;28;20420;-69
2022/07/09 03:28:29;;;;;;;830.83;767.53;;;11.80;22.80;;;;;;5072038;28;20431;-69
2022/07/09 03:30:55;;;;;;;707.97;653.07;;;11.80;22.80;;;;;;5072388;28;20426;-69
2022/07/09 03:33:21;;;;;;;615.77;573.57;;;11.80;22.80;;;;;;5072555;28;20164;-69
2022/07/09 03:35:46;;;;;;;578.17;539.47;;;11.80;22.60;;;;;;5071341;28;20423;-67
2022/07/09 03:38:12;;;;;;;1050.50;963.83;;;11.70;22.70;;;;;;5072023;28;20197;-69
2022/07/09 03:40:37;;;;;;;896.17;827.53;;;11.80;23.00;;;;;;5071691;28;20176;-68
2022/07/09 03:43:03;;;;;;;681.13;637.27;;;11.80;23.00;;;;;;5072538;28;20203;-69
2022/07/09 03:45:29;;;;;;;917.63;846.90;;;11.80;22.80;;;;;;5072863;28;20205;-68
2022/07/09 03:47:54;;;;;;;743.50;691.93;;;11.80;22.70;;;;;;5072521;28;20459;-68
2022/07/09 03:50:20;;;;;;;434.17;409.97;;;11.90;22.60;;;;;;5072669;28;20171;-68
2022/07/09 03:52:45;;;;;;;878.77;814.13;;;11.90;22.90;;;;;;5072831;28;20279;-68
2022/07/09 03:55:11;;;;;;;472.63;446.40;;;11.90;22.80;;;;;;5072916;28;20216;-68
2022/07/09 03:57:37;;;;;;;847.70;785.57;;;12.00;22.50;;;;;;5072622;28;20173;-69
2022/07/09 04:00:05;;;;;;;414.93;390.40;;;12.00;22.60;;;;;;5072469;28;20434;-69
2022/07/09 04:02:30;;;;;;;1071.07;988.57;;;12.00;22.10;;;;;;5072439;28;20204;-68
2022/07/09 04:04:56;;;;;;;1009.33;933.00;;;12.00;22.40;;;;;;5071234;28;20477;-68
2022/07/09 04:07:22;;;;;;;601.67;566.60;;;12.10;21.90;;;;;;5072237;28;20252;-69
2022/07/09 04:09:48;;;;;;;833.97;774.30;;;12.20;21.80;;;;;;5093635;22;20257;-68
2022/07/09 04:12:13;;;;;;;797.47;738.50;;;12.20;22.00;;;;;;5072718;28;20435;-68
2022/07/09 04:14:39;;;;;;;1059.37;968.97;;;12.20;21.70;;;;;;5071183;28;20562;-68
2022/07/09 04:17:06;;;;;;;711.87;661.17;;;12.30;21.50;;;;;;5071991;28;20222;-68
2022/07/09 04:19:31;;;;;;;657.83;611.73;;;12.30;21.50;;;;;;5071885;28;20232;-68
2022/07/09 04:21:57;;;;;;;921.97;851.53;;;12.40;21.50;;;;;;5070750;28;21013;-68
2022/07/09 04:24:22;;;;;;;706.47;657.60;;;12.40;21.20;;;;;;5070902;28;20175;-69
2022/07/09 04:26:48;;;;;;;648.53;603.60;;;12.50;21.10;;;;;;5071078;28;20220;-68
2022/07/09 04:29:13;;;;;;;634.97;591.67;;;12.50;21.00;;;;;;5071279;28;20228;-68
2022/07/09 04:31:39;;;;;;;721.97;677.83;;;12.60;21.20;;;;;;5070788;28;20182;-68
2022/07/09 04:34:04;;;;;;;718.50;664.40;;;12.80;20.30;;;;;;5071710;28;20182;-68
2022/07/09 04:36:31;;;;;;;792.90;738.50;;;12.90;20.30;;;;;;5071843;28;20257;-68
2022/07/09 04:38:57;;;;;;;562.03;526.77;;;12.90;20.30;;;;;;5071257;28;20680;-67
2022/07/09 04:41:22;;;;;;;774.37;719.00;;;13.00;20.00;;;;;;5071688;28;20482;-68
2022/07/09 04:43:48;;;;;;;686.47;641.17;;;13.10;19.90;;;;;;5071724;28;20170;-67
2022/07/09 04:46:16;;;;;;;586.30;547.70;;;13.10;19.60;;;;;;5070994;28;20174;-69
2022/07/09 04:48:41;;;;;;;875.00;809.77;;;13.30;19.50;;;;;;5072142;28;20191;-68
2022/07/09 04:51:07;;;;;;;772.10;716.53;;;13.40;19.10;;;;;;5071831;28;20500;-67
2022/07/09 04:53:32;;;;;;;716.50;668.50;;;13.50;19.20;;;;;;5071657;28;20233;-66
2022/07/09 04:55:58;;;;;;;700.83;653.70;;;13.70;18.40;;;;;;5072016;28;20657;-67
2022/07/09 04:58:23;;;;;;;639.40;599.93;;;13.90;18.20;;;;;;5071090;28;20579;-66
2022/07/09 05:00:49;;;;;;;762.07;705.07;;;14.40;17.50;;;;;;5071333;28;20252;-66
2022/07/09 05:03:15;;;;;;;678.00;638.23;;;15.10;15.50;;;;;;5071638;28;20173;-66
2022/07/09 05:05:40;;;;;;;984.73;905.77;;;16.10;14.10;;;;;;5071766;28;20478;-66
2022/07/09 05:08:07;;;;;;;946.77;877.07;;;17.10;12.00;;;;;;5071583;28;20304;-67
2022/07/09 05:10:32;;;;;;;727.90;687.53;;;18.20;10.90;;;;;;5071319;28;20990;-67
2022/07/09 05:12:58;;;;;;;772.63;722.80;;;19.20;9.50;;;;;;5071237;28;20734;-67
2022/07/09 05:15:23;;;;;;;735.23;685.57;;;20.20;7.70;;;;;;5073860;28;20174;-66
2022/07/09 05:17:49;;;;;;;900.10;828.97;;;21.10;6.60;;;;;;5074936;28;20186;-67
2022/07/09 05:20:15;;;;;;;726.93;678.40;;;21.90;4.40;;;;;;5074208;28;20200;-66
2022/07/09 05:22:40;;;;;;;737.67;689.33;;;22.60;4.20;;;;;;5075012;28;20205;-66
2022/07/09 05:25:06;;;;;;;777.10;720.17;;;23.30;1.80;;;;;;5074598;28;20555;-66
2022/07/09 05:27:32;;;;;;;850.47;779.77;;;23.90;1.00;;;;;;5058932;28;20187;-65
2022/07/09 05:29:58;;;;;;;737.30;689.90;;;24.70;1.00;;;;;;5053779;28;20441;-66
2022/07/09 05:32:24;;;;;;;838.67;771.47;;;25.30;1.00;;;;;;5054180;28;20305;-66
2022/07/09 05:34:49;;;;;;;971.50;877.87;;;25.90;1.00;;;;;;5053721;28;20895;-66
2022/07/09 05:37:15;;;;;;;981.60;884.60;;;26.30;1.00;;;;;;5052422;28;20194;-66
2022/07/09 05:39:41;;;;;;;873.70;800.03;;;26.90;1.00;;;;;;5053558;28;20202;-66
2022/07/09 05:42:06;;;;;;;966.20;869.70;;;27.50;1.00;;;;;;5053946;28;20290;-66
2022/07/09 05:44:32;;;;;;;937.30;846.97;;;27.80;1.00;;;;;;5053945;28;20174;-66
2022/07/09 05:46:58;;;;;;;913.97;833.70;;;28.30;1.00;;;;;;5054667;28;20623;-66
2022/07/09 05:49:23;;;;;;;948.83;857.43;;;28.70;1.00;;;;;;5053624;28;20437;-66
2022/07/09 05:51:49;;;;;;;913.97;831.53;;;28.90;1.00;;;;;;5054081;28;20174;-65
2022/07/09 05:54:14;;;;;;;1002.53;899.67;;;29.10;1.00;;;;;;5054030;28;20185;-66
2022/07/09 05:56:41;;;;;;;840.40;770.20;;;29.30;1.00;;;;;;5054478;28;20186;-67
2022/07/09 05:59:07;;;;;;;1017.73;906.83;;;29.50;1.00;;;;;;5053580;28;20198;-66
2022/07/09 06:01:33;;;;;;;1034.60;926.10;;;;;;;;;;5052649;28;20465;-66
2022/07/09 06:03:58;;;;;;;880.97;803.57;;;30.50;1.00;;;;;;5054095;28;20908;-66
2022/07/09 06:06:24;;;;;;;984.17;889.13;;;30.80;1.00;;;;;;5053684;28;20424;-66
2022/07/09 06:08:49;;;;;;;960.87;863.90;;;31.30;1.00;;;;;;5053918;28;20209;-66
2022/07/09 06:11:15;;;;;;;931.27;848.40;;;31.50;1.00;;;;;;5053698;28;20531;-68
2022/07/09 06:13:41;;;;;;;945.10;850.47;;;31.60;1.00;;;;;;5053680;28;20208;-65
2022/07/09 06:16:07;;;;;;;955.63;862.40;;;31.50;1.00;;;;;;5053592;28;20207;-66
2022/07/09 06:18:32;;;;;;;913.60;832.03;;;;;;;;;;5053207;28;20203;-66
2022/07/09 06:20:58;;;;;;;989.27;887.27;;;31.80;1.00;;;;;;5053447;28;20179;-65
2022/07/09 06:23:24;;;;;;;985.53;885.90;;;32.20;1.00;;;;;;5053735;28;20409;-65
2022/07/09 06:25:49;;;;;;;923.37;839.87;;;32.60;1.00;;;;;;5052319;28;20175;-68
2022/07/09 06:28:15;;;;;;;962.70;867.57;;;32.90;1.00;;;;;;5052942;28;20641;-68
2022/07/09 06:30:40;;;;;;;949.37;858.47;;;33.30;1.00;;;;;;5054295;28;20170;-67
2022/07/09 06:33:06;;;;;;;1034.50;927.53;;;34.00;1.00;;;;;;5053472;28;20214;-67
2022/07/09 06:35:31;;;;;;;1009.17;900.23;;;34.60;1.00;;;;;;5053180;28;20179;-68
2022/07/09 06:37:58;;;;;;;1216.50;998.83;;;35.10;1.00;;;;;;5052810;28;20179;-68
2022/07/09 06:40:23;;;;;;;962.93;865.53;;;35.30;1.00;;;;;;5053153;28;20268;-68
2022/07/09 06:42:49;;;;;;;983.47;879.93;;;35.60;1.00;;;;;;5053305;28;20448;-68
2022/07/09 06:45:14;;;;;;;932.60;845.47;;;35.60;1.00;;;;;;5052927;28;20220;-68
2022/07/09 06:47:40;;;;;;;1268.87;978.83;;;35.60;1.00;;;;;;5052893;28;20282;-68
2022/07/09 06:50:06;;;;;;;1176.53;947.73;;;35.30;1.00;;;;;;5052427;28;20193;-68
2022/07/09 06:52:32;;;;;;;946.80;851.47;;;35.00;1.00;;;;;;5052734;28;20410;-68
2022/07/09 06:54:57;;;;;;;1086.40;946.60;;;34.20;1.00;;;;;;5053594;28;20448;-67
2022/07/09 06:57:23;;;;;;;950.83;860.10;;;33.50;1.00;;;;;;5052947;28;20179;-67
2022/07/09 06:59:49;;;;;;;953.90;857.63;;;;;;;;;;5052255;28;20190;-68
2022/07/09 07:02:18;;;;;;;995.93;889.93;;;32.20;1.00;;;;;;5052469;28;20285;-68
2022/07/09 07:04:44;;;;;;;1057.63;920.57;;;31.50;1.00;;;;;;5052597;28;20996;-68
2022/07/09 07:07:09;;;;;;;1005.40;902.30;;;31.00;1.00;;;;;;5052518;28;20436;-68
2022/07/09 07:09:35;;;;;;;932.87;846.73;;;30.30;1.00;;;;;;5052121;28;20452;-69
2022/07/09 07:12:00;;;;;;;1061.20;946.53;;;30.30;1.00;;;;;;5049271;28;20179;-68
2022/07/09 07:14:26;;;;;;;954.10;859.93;;;30.40;1.00;;;;;;5048108;28;20236;-67
2022/07/09 07:16:52;;;;;;;959.97;868.27;;;30.30;1.00;;;;;;5048608;28;20193;-68
2022/07/09 07:19:20;;;;;;;970.30;875.47;;;30.10;1.00;;;;;;5083259;28;20216;-68
2022/07/09 07:21:46;;;;;;;1071.60;944.83;;;30.10;1.00;;;;;;5088133;28;20829;-68
2022/07/09 07:24:13;;;;;;;1050.67;934.70;;;31.00;1.00;;;;;;5088607;28;20457;-69
2022/07/09 07:26:39;;;;;;;1014.40;903.57;;;31.90;1.00;;;;;;5088522;28;20706;-68
2022/07/09 07:29:04;;;;;;;1097.50;984.17;;;32.20;1.00;;;;;;5082274;28;20539;-69
2022/07/09 07:31:30;;;;;;;935.00;847.97;;;30.20;1.00;;;;;;5060153;28;20511;-70
2022/07/09 07:33:57;;;;;;;911.60;830.63;;;31.50;1.00;;;;;;5060153;28;20203;-68
2022/07/09 07:36:22;;;;;;;1154.60;953.90;;;32.60;1.00;;;;;;5047762;28;20424;-68
2022/07/09 07:38:48;;;;;;;960.33;865.47;;;33.70;1.00;;;;;;5047856;28;20437;-69
2022/07/09 07:41:16;;;;;;;1127.57;959.33;;;34.10;1.00;;;;;;5058745;28;20643;-68
2022/07/09 07:43:41;;;;;;;1121.47;955.33;;;34.70;1.00;;;;;;5067160;28;20178;-68
2022/07/09 07:46:07;;;;;;;988.60;885.67;;;35.40;1.00;;;;;;5068447;28;20435;-68
2022/07/09 07:48:35;;;;;;;972.93;876.63;;;35.90;1.00;;;;;;5067352;28;20622;-68
2022/07/09 07:51:01;;;;;;;978.63;874.50;;;36.20;1.00;;;;;;5067546;28;20174;-68
2022/07/09 07:53:27;;;;;;;1080.17;927.50;;;36.30;1.00;;;;;;5067949;28;20515;-70
2022/07/09 07:55:52;;;;;;;1291.83;999.03;;;35.80;1.00;;;;;;5068275;28;20575;-68
2022/07/09 07:58:18;;;;;;;1096.33;938.17;;;35.30;1.00;;;;;;5067125;28;20612;-68
2022/07/09 08:00:43;;;;;;;927.70;841.40;;;34.50;1.00;;;;;;5068056;28;20257;-69
2022/07/09 08:03:09;;;;;;;953.30;859.13;;;34.40;1.00;;;;;;5067916;28;20228;-68
2022/07/09 08:05:35;;;;;;;1059.57;925.00;;;34.20;1.00;;;;;;5067246;28;20189;-68
2022/07/09 08:08:00;;;;;;;1036.97;925.73;;;34.60;1.00;;;;;;5067749;28;20181;-71
2022/07/09 08:10:26;;;;;;;1051.10;922.20;;;;;;;;;;5067505;28;20237;-69
2022/07/09 08:12:52;;;;;;;1150.37;972.80;;;33.80;1.00;;;;;;5066722;28;20323;-68
2022/07/09 08:15:18;;;;;;;1059.40;924.67;;;34.00;1.00;;;;;;5066002;28;20416;-68
2022/07/09 08:17:44;;;;;;;830.27;758.23;;;;;;;;;;5065709;28;20758;-67
2022/07/09 08:20:11;;;;;;;909.23;823.87;;;33.40;1.00;;;;;;5065066;28;20624;-68
2022/07/09 08:22:36;;;;;;;1124.27;941.10;;;33.20;1.00;;;;;;5064474;28;20537;-68
2022/07/09 08:25:03;;;;;;;1124.50;942.00;;;33.00;1.00;;;;;;5065751;28;20586;-67
2022/07/09 08:27:29;;;;;;;934.33;838.83;;;33.10;1.00;;;;;;5065379;28;20185;-67
2022/07/09 08:29:54;;;;;;;952.90;858.77;;;32.40;1.00;;;;;;5077281;28;20443;-68
2022/07/09 08:32:20;;;;;;;1111.03;947.03;;;30.50;1.00;;;;;;5087832;28;20565;-67
2022/07/09 08:34:46;;;;;;;908.53;822.70;;;30.60;1.00;;;;;;5084503;28;20177;-67
2022/07/09 08:37:11;;;;;;;870.97;795.43;;;30.70;1.00;;;;;;5067559;28;20274;-69
2022/07/09 08:39:37;;;;;;;923.50;829.90;;;30.70;1.00;;;;;;5067241;28;20575;-68
2022/07/09 08:42:07;;;;;;;1088.53;928.83;;;29.60;1.00;;;;;;5067001;28;20267;-68
2022/07/09 08:44:37;;;;;;;1076.60;959.33;;;29.60;1.00;;;;;;5067656;28;20185;-68
2022/07/09 08:47:03;;;;;;;911.63;826.40;;;28.60;1.00;;;;;;5067964;28;20416;-70
2022/07/09 08:49:30;;;;;;;974.90;879.20;;;28.40;1.00;;;;;;5068644;28;20813;-68
2022/07/09 08:51:57;;;;;;;820.87;758.43;;;27.90;1.00;;;;;;5070778;28;20414;-68
2022/07/09 08:54:23;;;;;;;925.50;839.83;;;28.10;1.00;;;;;;5071343;28;20431;-69
2022/07/09 08:56:51;;;;;;;910.03;829.83;;;28.50;1.00;;;;;;5071427;28;20420;-68
2022/07/09 08:59:16;;;;;;;939.70;853.77;;;28.60;1.00;;;;;;5070153;28;20196;-68
2022/07/09 09:01:42;;;;;;;809.63;742.07;;;26.80;1.00;;;;;;5071839;28;20467;-68
2022/07/09 09:04:09;;;;;;;843.77;773.13;;;25.90;1.00;;;;;;5059520;28;20194;-68
2022/07/09 09:06:39;;;;;;;780.47;720.43;;;26.20;1.00;;;;;;5059324;28;20186;-68
2022/07/09 09:09:08;;;;;;;696.90;648.70;;;26.20;1.00;;;;;;5052731;28;20441;-68
2022/07/09 09:11:36;;;;;;;799.87;737.23;;;26.00;1.00;;;;;;5055513;28;20419;-70
2022/07/09 09:14:02;;;;;;;797.23;734.87;;;25.70;1.00;;;;;;5071955;28;20436;-68
2022/07/09 09:16:27;;;;;;;763.63;703.70;;;25.40;1.00;;;;;;5070672;28;20767;-68
2022/07/09 09:18:53;;;;;;;740.07;689.07;;;25.30;1.00;;;;;;5072017;28;20447;-69
2022/07/09 09:21:21;;;;;;;709.67;661.83;;;25.10;1.00;;;;;;5069546;28;20198;-68
2022/07/09 09:23:54;;;;;;;777.60;721.27;;;24.80;1.00;;;;;;5056830;28;20813;-68
2022/07/09 09:26:25;;;;;;;776.30;712.97;;;24.60;1.00;;;;;;5071394;28;20493;-68
2022/07/09 09:28:52;;;;;;;747.30;694.37;;;24.60;1.00;;;;;;5071791;28;21010;-69
2022/07/09 09:31:25;;;;;;;780.77;724.23;;;24.60;1.00;;;;;;5073045;28;20452;-67
2022/07/09 09:33:55;;;;;;;886.83;812.60;;;24.50;1.00;;;;;;5067800;28;20425;-68
2022/07/09 09:36:32;;;;;;;611.40;576.20;;;24.50;1.00;;;;;;5051946;28;20467;-68
2022/07/09 09:39:14;;;;;;;752.70;695.50;;;24.20;1.00;;;;;;5051803;28;20436;-68
2022/07/09 09:41:42;;;;;;;916.10;833.33;;;24.00;1.00;;;;;;5053093;28;20472;-68
2022/07/09 09:44:14;;;;;;;710.47;658.70;;;23.60;1.00;;;;;;5062655;28;20417;-68
2022/07/09 09:46:41;;;;;;;640.30;598.23;;;23.60;1.00;;;;;;5071356;28;20495;-68
2022/07/09 09:49:08;;;;;;;633.13;591.00;;;23.60;1.00;;;;;;5067117;28;20440;-68
2022/07/09 09:51:36;;;;;;;766.70;704.07;;;23.20;1.00;;;;;;5073041;28;20506;-69
2022/07/09 09:54:03;;;;;;;682.13;633.77;;;23.20;1.00;;;;;;5075332;28;20424;-70
2022/07/09 09:56:30;;;;;;;648.30;605.60;;;23.10;1.00;;;;;;5063250;28;20460;-68
2022/07/09 09:58:57;;;;;;;677.80;626.60;;;23.20;1.00;;;;;;5070513;28;20470;-66
2022/07/09 10:01:23;;;;;;;923.07;845.23;;;23.30;1.00;;;;;;5075933;28;20493;-68
2022/07/09 10:03:50;;;;;;;652.63;600.50;;;23.40;1.00;;;;;;5086021;28;20407;-69
2022/07/09 10:06:16;;;;;;;929.73;846.03;;;23.10;1.00;;;;;;5072175;28;20452;-68
2022/07/09 10:08:41;;;;;;;1035.07;933.07;;;23.10;1.00;;;;;;5053407;28;20445;-68
2022/07/09 10:11:07;;;;;;;763.30;700.20;;;22.90;1.00;;;;;;5054524;28;20638;-68
2022/07/09 10:13:32;;;;;;;679.00;630.20;;;23.10;1.00;;;;;;5052471;28;20183;-68
2022/07/09 10:15:59;;;;;;;840.17;771.67;;;23.20;1.00;;;;;;5072740;28;20185;-68
2022/07/09 10:18:24;;;;;;;703.27;652.43;;;23.20;1.00;;;;;;5093259;28;20248;-68
2022/07/09 10:20:57;;;;;;;657.37;613.33;;;23.30;1.00;;;;;;5093569;28;20840;-68
2022/07/09 10:23:24;;;;;;;641.40;596.60;;;23.40;1.00;;;;;;5088078;28;20181;-68
2022/07/09 10:25:52;;;;;;;723.07;669.60;;;23.00;1.00;;;;;;5064079;28;20417;-68
2022/07/09 10:28:19;;;;;;;821.80;753.00;;;23.20;1.00;;;;;;5052855;28;20448;-68
2022/07/09 10:30:46;;;;;;;711.63;656.90;;;23.30;1.00;;;;;;5053062;28;20405;-68
2022/07/09 10:33:13;;;;;;;523.90;491.73;;;23.30;1.00;;;;;;5053194;28;20405;-68
2022/07/09 10:35:44;;;;;;;881.17;804.60;;;23.30;1.00;;;;;;5060112;28;20979;-68
2022/07/09 10:38:10;;;;;;;964.80;877.67;;;23.30;1.00;;;;;;5072741;28;20447;-68
2022/07/09 10:40:47;;;;;;;810.40;742.60;;;23.40;1.00;;;;;;5072669;28;20424;-68
2022/07/09 10:43:13;;;;;;;521.93;487.80;;;23.40;1.00;;;;;;5073123;28;20451;-68
2022/07/09 10:45:41;;;;;;;556.87;522.73;;;23.40;1.00;;;;;;5065701;28;20424;-68
2022/07/09 10:48:09;;;;;;;756.50;699.57;;;23.50;1.00;;;;;;5052542;28;20781;-68
2022/07/09 10:50:40;;;;;;;707.83;656.27;;;23.50;1.00;;;;;;5052805;28;20483;-67
2022/07/09 10:53:07;;;;;;;625.50;583.30;;;23.50;1.00;;;;;;5052659;28;20449;-67
2022/07/09 10:55:33;;;;;;;736.83;679.50;;;23.60;1.00;;;;;;5063163;28;20506;-67
2022/07/09 10:57:59;;;;;;;753.83;695.43;;;23.40;1.00;;;;;;5068362;28;21027;-68
2022/07/09 11:00:26;;;;;;;652.37;606.63;;;23.30;1.00;;;;;;5066850;28;20613;-67
2022/07/09 11:03:02;;;;;;;724.73;666.43;;;23.10;1.00;;;;;;5072293;28;20558;-67
2022/07/09 11:05:29;;;;;;;761.87;701.10;;;22.90;1.00;;;;;;5053354;28;20527;-67
2022/07/09 11:07:59;;;;;;;803.00;739.77;;;22.80;1.00;;;;;;5051994;28;20412;-68
2022/07/09 11:10:27;;;;;;;1104.03;995.60;;;22.90;1.00;;;;;;5056024;28;20472;-68
2022/07/09 11:12:53;;;;;;;718.87;663.93;;;22.90;1.00;;;;;;5058369;28;20802;-68
2022/07/09 11:15:22;;;;;;;951.30;862.47;;;22.90;1.00;;;;;;5072348;28;20978;-68
2022/07/09 11:17:58;;;;;;;737.43;680.33;;;23.10;1.00;;;;;;5072641;28;20431;-68
2022/07/09 11:20:25;;;;;;;576.63;539.53;;;23.20;1.00;;;;;;5072414;28;20473;-68
2022/07/09 11:22:50;;;;;;;717.27;664.60;;;23.40;1.00;;;;;;5069837;28;20460;-68
2022/07/09 11:25:17;;;;;;;603.67;565.20;;;23.50;1.00;;;;;;5052618;28;20514;-68
2022/07/09 11:27:42;;;;;;;681.13;633.73;;;23.60;1.00;;;;;;5051539;28;20181;-67
2022/07/09 11:30:15;;;;;;;663.73;612.10;;;23.70;1.00;;;;;;5050729;28;20519;-67
2022/07/09 11:32:45;;;;;;;1053.37;954.73;;;23.80;1.00;;;;;;5055859;28;20307;-67
2022/07/09 11:35:11;;;;;;;794.03;729.07;;;23.90;1.00;;;;;;5072266;28;20420;-67
2022/07/09 11:37:38;;;;;;;671.13;622.77;;;24.10;1.00;;;;;;5072072;28;20408;-67
2022/07/09 11:40:04;;;;;;;587.73;548.20;;;24.30;1.00;;;;;;5071572;28;20474;-67
2022/07/09 11:42:30;;;;;;;674.20;622.53;;;24.40;1.00;;;;;;5069144;28;20508;-67
2022/07/09 11:45:02;;;;;;;828.37;755.93;;;24.40;1.00;;;;;;5051649;28;20785;-67
2022/07/09 11:47:38;;;;;;;700.43;652.47;;;24.40;1.00;;;;;;5051832;28;20653;-67
2022/07/09 11:50:13;;;;;;;750.87;690.67;;;24.60;1.00;;;;;;5051287;28;20463;-67
2022/07/09 11:52:45;;;;;;;717.53;660.13;;;24.70;1.00;;;;;;5054665;28;20463;-66
2022/07/09 11:55:13;;;;;;;725.10;667.37;;;24.70;1.00;;;;;;5071635;28;20416;-66
2022/07/09 11:57:39;;;;;;;588.27;551.83;;;24.50;1.00;;;;;;5071164;28;20455;-68
2022/07/09 12:00:19;;;;;;;748.90;687.17;;;24.50;1.00;;;;;;5071280;28;20467;-68
2022/07/09 12:02:45;;;;;;;818.63;753.87;;;24.60;1.00;;;;;;5062613;28;20259;-69
2022/07/09 12:05:11;;;;;;;832.83;765.47;;;24.70;1.00;;;;;;5046723;28;20461;-69
2022/07/09 12:07:37;;;;;;;752.20;697.70;;;25.00;1.00;;;;;;5045671;28;20461;-67
2022/07/09 12:10:08;;;;;;;938.47;849.50;;;25.30;1.00;;;;;;5046460;28;20239;-68